Decoded Metar for KMVH ( in ) (IATA:) | Meteo·Mobile Aviation Weather
aviador You're here:

KMVH Decoded Metar

in
Report Time2019-10-19 22:25:00
UTC Time2019-10-19 22:36:50
Flight Rules vfr VFR
Wind190° at 05 Gusting to 11 kt
Visibility9999 m
Phenomena:N/A
Clouds:N/A
Expected CloudBase > 6,800 ft AGL from Temp-Dew spread
CeilingNone
Temp09°C
Dew Point-8°C (29% RH)
AAT4.3°C
QNH1001 hPa
Raw Report
KMVH 192225Z AUTO 19005G11KT 10SM CLR 09/M08 A2957 RMK AO2=

Extra information for KMVH:More info

Social comments